createdAt,value
2023-03-29T00:01:35.133Z,3.87
2023-03-29T00:04:04.479Z,3.60
2023-03-29T00:06:33.429Z,3.92
2023-03-29T00:09:01.962Z,3.88
2023-03-29T00:11:28.630Z,4.18
2023-03-29T00:13:55.345Z,3.53
2023-03-29T00:16:22.354Z,3.85
2023-03-29T00:18:49.161Z,3.83
2023-03-29T00:21:15.788Z,3.85
2023-03-29T00:23:42.459Z,4.10
2023-03-29T00:26:09.069Z,4.33
2023-03-29T00:28:35.671Z,4.18
2023-03-29T00:31:16.208Z,4.40
2023-03-29T00:33:43.069Z,4.40
2023-03-29T00:36:11.345Z,4.68
2023-03-29T00:38:38.864Z,4.17
2023-03-29T00:41:07.054Z,4.50
2023-03-29T00:43:59.512Z,3.90
2023-03-29T00:46:28.032Z,3.88
2023-03-29T00:49:02.647Z,4.75
2023-03-29T00:51:32.921Z,3.80
2023-03-29T00:54:03.540Z,3.55
2023-03-29T00:56:37.215Z,4.18
2023-03-29T00:59:24.718Z,3.80
2023-03-29T01:01:57.197Z,4.57
2023-03-29T01:04:36.521Z,3.50
2023-03-29T01:07:18.749Z,4.25
2023-03-29T01:09:51.047Z,3.92
2023-03-29T01:12:22.544Z,4.30
2023-03-29T01:14:54.597Z,4.63
2023-03-29T01:17:21.958Z,4.37
2023-03-29T01:19:58.349Z,4.72
2023-03-29T01:23:04.011Z,5.82
2023-03-29T01:26:01.104Z,4.43
2023-03-29T01:28:37.083Z,4.47
2023-03-29T01:31:17.220Z,4.93
2023-03-29T01:33:55.216Z,4.22
2023-03-29T01:36:29.188Z,4.55
2023-03-29T01:39:06.415Z,5.60
2023-03-29T01:41:41.074Z,4.13
2023-03-29T01:44:17.927Z,3.77
2023-03-29T01:46:53.175Z,4.00
2023-03-29T01:49:28.860Z,4.15
2023-03-29T01:52:01.716Z,3.22
2023-03-29T01:55:26.921Z,3.70
2023-03-29T01:57:56.426Z,3.33
2023-03-29T02:00:27.790Z,3.05
2023-03-29T02:03:00.486Z,3.17
2023-03-29T02:05:30.686Z,2.80
2023-03-29T02:08:00.317Z,3.40
2023-03-29T02:10:28.228Z,3.03
2023-03-29T02:12:55.450Z,2.80
2023-03-29T02:15:23.536Z,2.75
2023-03-29T02:17:51.224Z,2.90
2023-03-29T02:20:22.690Z,3.35
2023-03-29T02:23:06.360Z,3.17
2023-03-29T02:25:33.221Z,2.60
2023-03-29T02:28:01.010Z,2.38
2023-03-29T02:30:53.720Z,2.75
2023-03-29T02:33:46.761Z,2.67
2023-03-29T02:36:19.886Z,6.10
2023-03-29T02:38:46.541Z,4.00
2023-03-29T02:41:13.639Z,3.40
2023-03-29T02:43:42.374Z,2.42
2023-03-29T02:46:11.657Z,2.72
2023-03-29T02:48:38.710Z,2.67
2023-03-29T02:51:21.590Z,2.30
2023-03-29T02:53:59.437Z,2.47
2023-03-29T02:56:25.963Z,1.60
2023-03-29T02:58:52.528Z,2.20
2023-03-29T03:01:20.622Z,2.27
2023-03-29T03:03:48.232Z,1.80
2023-03-29T03:06:15.471Z,2.17
2023-03-29T03:08:42.303Z,2.28
2023-03-29T03:11:08.875Z,2.40
2023-03-29T03:13:35.432Z,2.93
2023-03-29T03:16:02.105Z,2.50
2023-03-29T03:18:28.829Z,2.42
2023-03-29T03:20:57.142Z,2.00
2023-03-29T03:23:24.233Z,2.10
2023-03-29T03:25:52.779Z,2.20
2023-03-29T03:28:20.126Z,2.20
2023-03-29T03:30:46.686Z,2.50
2023-03-29T03:33:13.234Z,1.63
2023-03-29T03:35:39.872Z,1.98
2023-03-29T03:38:06.386Z,1.97
2023-03-29T03:40:33.442Z,1.80
2023-03-29T03:43:00.015Z,2.20
2023-03-29T03:45:26.685Z,1.77
2023-03-29T03:47:53.390Z,1.73
2023-03-29T03:50:19.957Z,1.80
2023-03-29T03:52:46.709Z,1.75
2023-03-29T03:55:13.290Z,1.77
2023-03-29T03:57:39.941Z,2.38
2023-03-29T04:00:20.088Z,1.95
2023-03-29T04:02:49.035Z,1.97
2023-03-29T04:05:16.453Z,2.25
2023-03-29T04:07:43.443Z,1.92
2023-03-29T04:10:11.277Z,1.73
2023-03-29T04:12:38.974Z,2.25
2023-03-29T04:15:06.811Z,2.10
2023-03-29T04:17:33.608Z,2.25
2023-03-29T04:20:02.314Z,2.08
2023-03-29T04:22:29.021Z,2.03
2023-03-29T04:24:55.782Z,2.47
2023-03-29T04:27:22.360Z,2.50
2023-03-29T04:29:49.061Z,2.30
2023-03-29T04:32:15.551Z,2.15
2023-03-29T04:34:42.062Z,2.22
2023-03-29T04:37:10.617Z,2.30
2023-03-29T04:39:38.058Z,2.23
2023-03-29T04:42:05.764Z,1.85
2023-03-29T04:44:35.220Z,2.15
2023-03-29T04:47:01.780Z,2.13
2023-03-29T04:49:29.094Z,2.20
2023-03-29T04:51:55.703Z,2.13
2023-03-29T04:54:22.326Z,2.28
2023-03-29T04:56:48.938Z,4.75
2023-03-29T04:59:15.532Z,5.72
2023-03-29T05:01:42.166Z,8.45
2023-03-29T05:04:10.208Z,9.70
2023-03-29T05:06:38.722Z,4.28
2023-03-29T05:09:05.330Z,3.78
2023-03-29T05:11:31.984Z,3.40
2023-03-29T05:14:02.546Z,3.83
2023-03-29T05:16:32.893Z,2.53
2023-03-29T05:18:59.641Z,2.90
2023-03-29T05:21:26.691Z,2.30
2023-03-29T05:23:53.410Z,1.92
2023-03-29T05:26:20.570Z,2.47
2023-03-29T05:28:47.146Z,2.80
2023-03-29T05:31:16.700Z,2.85
2023-03-29T05:33:44.023Z,8.02
2023-03-29T05:36:13.918Z,4.25
2023-03-29T05:38:41.306Z,3.38
2023-03-29T05:41:08.638Z,7.03
2023-03-29T05:43:35.224Z,5.10
2023-03-29T05:46:01.836Z,3.22
2023-03-29T05:48:28.868Z,2.88
2023-03-29T05:50:56.485Z,3.00
2023-03-29T05:53:25.071Z,2.80
2023-03-29T05:55:51.833Z,3.45
2023-03-29T05:58:19.189Z,6.53
2023-03-29T06:00:46.440Z,6.80
2023-03-29T06:03:22.019Z,4.25
2023-03-29T06:05:55.161Z,2.60
2023-03-29T06:08:22.780Z,2.75
2023-03-29T06:10:50.424Z,2.72
2023-03-29T06:13:17.521Z,2.67
2023-03-29T06:15:44.055Z,2.80
2023-03-29T06:18:11.012Z,2.57
2023-03-29T06:20:37.614Z,2.85
2023-03-29T06:23:04.174Z,2.92
2023-03-29T06:25:30.717Z,3.90
2023-03-29T06:27:57.757Z,2.67
2023-03-29T06:30:25.069Z,3.23
2023-03-29T06:32:51.681Z,2.75
2023-03-29T06:35:18.529Z,2.65
2023-03-29T06:37:50.054Z,2.55
2023-03-29T06:40:19.213Z,2.85
2023-03-29T06:42:46.626Z,3.00
2023-03-29T06:45:14.193Z,3.08
2023-03-29T06:47:41.243Z,2.72
2023-03-29T06:50:08.646Z,2.88
2023-03-29T06:52:35.196Z,3.00
2023-03-29T06:55:02.070Z,2.43
2023-03-29T06:57:28.721Z,3.42
2023-03-29T06:59:55.267Z,2.17
2023-03-29T07:02:22.755Z,2.70
2023-03-29T07:04:49.523Z,2.53
2023-03-29T07:07:22.771Z,2.33
2023-03-29T07:09:54.225Z,2.33
2023-03-29T07:12:22.575Z,1.98
2023-03-29T07:14:49.160Z,2.42
2023-03-29T07:17:16.772Z,2.40
2023-03-29T07:19:43.534Z,2.27
2023-03-29T07:22:10.170Z,2.42
2023-03-29T07:24:36.718Z,2.10
2023-03-29T07:27:04.739Z,2.20
2023-03-29T07:29:32.201Z,2.20
2023-03-29T07:31:59.181Z,1.90
2023-03-29T07:34:25.739Z,1.95
2023-03-29T07:36:52.307Z,3.13
2023-03-29T07:39:18.922Z,2.60
2023-03-29T07:41:45.504Z,2.33
2023-03-29T07:44:12.073Z,2.13
2023-03-29T07:46:38.734Z,2.03
2023-03-29T07:49:06.149Z,2.25
2023-03-29T07:51:32.702Z,2.05
2023-03-29T07:54:00.012Z,3.15
2023-03-29T07:56:26.612Z,2.17
2023-03-29T07:58:53.179Z,2.00
2023-03-29T08:01:20.650Z,2.42
2023-03-29T08:03:47.479Z,2.00
2023-03-29T08:06:16.234Z,2.05
2023-03-29T08:08:42.782Z,1.87
2023-03-29T08:11:10.363Z,1.67
2023-03-29T08:13:37.470Z,1.55
2023-03-29T08:16:05.921Z,2.00
2023-03-29T08:18:34.704Z,3.60
2023-03-29T08:21:01.790Z,1.70
2023-03-29T08:23:30.027Z,2.00
2023-03-29T08:25:56.564Z,1.75
2023-03-29T08:28:23.410Z,1.63
2023-03-29T08:30:50.006Z,1.83
2023-03-29T08:33:17.084Z,1.77
2023-03-29T08:35:43.872Z,2.05
2023-03-29T08:38:10.656Z,2.03
2023-03-29T08:40:37.362Z,1.90
2023-03-29T08:43:24.186Z,1.92
2023-03-29T08:46:10.608Z,1.70
2023-03-29T08:48:46.044Z,1.50
2023-03-29T08:51:22.270Z,1.90
2023-03-29T08:53:54.032Z,2.70
2023-03-29T08:56:27.790Z,3.38
2023-03-29T08:58:57.982Z,2.17
2023-03-29T09:01:28.427Z,2.03
2023-03-29T09:04:06.005Z,1.90
2023-03-29T09:06:32.840Z,1.98
2023-03-29T09:08:59.409Z,4.07
2023-03-29T09:11:38.153Z,2.60
2023-03-29T09:14:23.515Z,2.10
2023-03-29T09:17:02.263Z,1.70
2023-03-29T09:19:37.323Z,1.95
2023-03-29T09:22:19.428Z,1.90
2023-03-29T09:24:57.915Z,1.53
2023-03-29T09:27:28.190Z,2.00
2023-03-29T09:30:04.908Z,2.00
2023-03-29T09:32:43.486Z,1.83
2023-03-29T09:35:25.263Z,1.50
2023-03-29T09:37:54.494Z,2.10
2023-03-29T09:40:27.853Z,1.70
2023-03-29T09:42:56.097Z,1.67
2023-03-29T09:48:05.425Z,2.10
2023-03-29T09:50:43.004Z,2.27
2023-03-29T09:53:10.630Z,1.83
2023-03-29T09:55:40.266Z,1.77
2023-03-29T09:58:18.158Z,1.98
2023-03-29T10:00:46.157Z,2.25
2023-03-29T10:03:28.581Z,1.87
2023-03-29T10:05:58.795Z,1.95
2023-03-29T10:08:31.250Z,2.10
2023-03-29T10:10:59.693Z,2.03
2023-03-29T10:13:33.128Z,1.55
2023-03-29T10:16:18.331Z,1.70
2023-03-29T10:18:44.944Z,1.50
2023-03-29T10:21:20.994Z,2.17
2023-03-29T10:23:48.986Z,1.73
2023-03-29T10:26:31.868Z,1.70
2023-03-29T10:29:01.638Z,1.37
2023-03-29T10:31:33.231Z,1.35
2023-03-29T10:34:06.441Z,1.35
2023-03-29T10:36:33.734Z,1.75
2023-03-29T10:39:06.046Z,1.42
2023-03-29T10:41:35.304Z,1.83
2023-03-29T10:44:02.189Z,1.70
2023-03-29T10:46:40.817Z,1.80
2023-03-29T10:49:19.086Z,1.73
2023-03-29T10:51:47.093Z,1.67
2023-03-29T10:54:15.953Z,4.50
2023-03-29T10:56:52.332Z,1.98
2023-03-29T10:59:22.908Z,5.55
2023-03-29T11:01:52.441Z,2.20
2023-03-29T11:04:29.765Z,2.88
2023-03-29T11:06:56.306Z,3.00
2023-03-29T11:09:33.874Z,1.92
2023-03-29T11:12:16.103Z,3.88
2023-03-29T11:15:11.322Z,4.30
2023-03-29T11:18:13.680Z,1.92
2023-03-29T11:21:10.724Z,1.40
2023-03-29T11:23:49.251Z,1.38
2023-03-29T11:26:22.653Z,1.90
2023-03-29T11:29:20.822Z,1.20
2023-03-29T11:32:11.967Z,1.50
2023-03-29T11:34:55.513Z,1.70
2023-03-29T11:37:32.988Z,1.35
2023-03-29T11:40:18.316Z,1.65
2023-03-29T11:42:48.873Z,1.55
2023-03-29T11:45:30.654Z,2.00
2023-03-29T11:47:59.416Z,2.13
2023-03-29T11:50:36.051Z,1.63
2023-03-29T11:53:08.633Z,1.85
2023-03-29T11:55:37.823Z,1.60
2023-03-29T11:58:18.809Z,1.75
2023-03-29T12:00:58.329Z,1.90
2023-03-29T12:03:58.376Z,2.03
2023-03-29T12:06:52.507Z,2.17
2023-03-29T12:09:33.549Z,1.90
2023-03-29T12:12:12.423Z,2.10
2023-03-29T12:14:56.328Z,2.30
2023-03-29T12:17:33.549Z,2.20
2023-03-29T12:20:00.137Z,2.03
2023-03-29T12:22:26.637Z,2.00
2023-03-29T12:24:55.911Z,1.90
2023-03-29T12:27:27.471Z,1.93
2023-03-29T12:30:28.082Z,1.80
2023-03-29T12:33:24.208Z,2.20
2023-03-29T12:36:09.046Z,2.33
2023-03-29T12:38:37.803Z,2.10
2023-03-29T12:41:21.875Z,2.43
2023-03-29T12:43:49.075Z,2.03
2023-03-29T12:46:25.944Z,2.15
2023-03-29T12:49:07.789Z,1.83
2023-03-29T12:51:37.046Z,1.80
2023-03-29T12:54:17.065Z,4.37
2023-03-29T12:56:52.841Z,1.77
2023-03-29T12:59:59.946Z,2.28
2023-03-29T13:02:35.050Z,1.83
2023-03-29T13:05:02.316Z,1.67
2023-03-29T13:07:32.735Z,1.87
2023-03-29T13:10:08.359Z,2.00
2023-03-29T13:12:34.843Z,2.30
2023-03-29T13:15:05.959Z,1.92
2023-03-29T13:18:06.570Z,2.95
2023-03-29T13:20:42.494Z,1.70
2023-03-29T13:23:18.027Z,2.15
2023-03-29T13:26:02.824Z,2.70
2023-03-29T13:28:44.823Z,2.45
2023-03-29T13:31:26.715Z,2.50
2023-03-29T13:34:20.413Z,2.40
2023-03-29T13:36:49.783Z,2.03
2023-03-29T13:39:22.189Z,2.30
2023-03-29T13:41:52.788Z,1.88
2023-03-29T13:44:22.324Z,2.28
2023-03-29T13:47:00.672Z,1.97
2023-03-29T13:49:31.833Z,2.13
2023-03-29T13:52:24.360Z,2.58
2023-03-29T13:55:01.832Z,2.10
2023-03-29T13:57:49.582Z,2.58
2023-03-29T14:00:23.583Z,2.17
2023-03-29T14:02:55.087Z,2.35
2023-03-29T14:05:28.355Z,1.63
2023-03-29T14:07:55.645Z,2.10
2023-03-29T14:10:37.625Z,2.28
2023-03-29T14:13:04.605Z,1.80
2023-03-29T14:15:43.882Z,1.65
2023-03-29T14:18:12.626Z,2.25
2023-03-29T14:20:44.139Z,1.80
2023-03-29T14:23:16.204Z,1.80
2023-03-29T14:25:42.807Z,1.73
2023-03-29T14:28:19.776Z,1.92
2023-03-29T14:30:50.105Z,1.48
2023-03-29T14:33:31.168Z,1.52
2023-03-29T14:36:00.445Z,2.10
2023-03-29T14:38:27.540Z,1.57
2023-03-29T14:40:58.772Z,1.88
2023-03-29T14:43:29.959Z,2.22
2023-03-29T14:45:57.801Z,2.30
2023-03-29T14:48:25.100Z,2.08
2023-03-29T14:50:52.333Z,1.77
2023-03-29T14:53:21.352Z,1.65
2023-03-29T14:55:51.810Z,2.20
2023-03-29T14:58:29.351Z,1.50
2023-03-29T15:00:56.106Z,1.50
2023-03-29T15:03:26.523Z,1.77
2023-03-29T15:06:02.781Z,1.83
2023-03-29T15:08:37.797Z,1.92
2023-03-29T15:11:14.386Z,5.35
2023-03-29T15:13:43.598Z,1.90
2023-03-29T15:16:15.014Z,1.93
2023-03-29T15:18:44.078Z,2.50
2023-03-29T15:21:13.711Z,2.03
2023-03-29T15:23:58.412Z,2.38
2023-03-29T15:26:31.082Z,2.42
2023-03-29T15:29:08.206Z,2.53
2023-03-29T15:31:42.097Z,2.40
2023-03-29T15:34:14.562Z,2.20
2023-03-29T15:36:43.302Z,2.10
2023-03-29T15:39:15.548Z,2.17
2023-03-29T15:41:43.153Z,3.00
2023-03-29T15:44:11.141Z,3.10
2023-03-29T15:46:37.932Z,4.57
2023-03-29T15:49:05.221Z,6.22
2023-03-29T15:51:32.191Z,3.72
2023-03-29T15:54:01.779Z,5.00
2023-03-29T15:56:28.936Z,2.63
2023-03-29T15:58:55.450Z,4.88
2023-03-29T16:01:33.571Z,2.30
2023-03-29T16:04:11.199Z,2.20
2023-03-29T16:06:37.851Z,1.90
2023-03-29T16:09:07.018Z,1.75
2023-03-29T16:11:34.940Z,1.90
2023-03-29T16:14:01.558Z,2.00
2023-03-29T16:16:28.146Z,1.80
2023-03-29T16:18:54.694Z,1.63
2023-03-29T16:21:22.384Z,1.90
2023-03-29T16:23:48.946Z,1.80
2023-03-29T16:26:16.862Z,1.60
2023-03-29T16:28:43.775Z,1.65
2023-03-29T16:31:12.410Z,1.80
2023-03-29T16:33:40.628Z,2.13
2023-03-29T16:36:08.122Z,1.63
2023-03-29T16:38:34.998Z,1.92
2023-03-29T16:41:01.995Z,1.38
2023-03-29T16:43:29.099Z,1.40
2023-03-29T16:45:55.689Z,1.58
2023-03-29T16:48:22.355Z,1.60
2023-03-29T16:50:49.621Z,1.17
2023-03-29T16:53:20.146Z,1.25
2023-03-29T16:55:50.005Z,1.67
2023-03-29T16:58:16.549Z,1.98
2023-03-29T17:00:46.368Z,1.25
2023-03-29T17:03:14.604Z,1.45
2023-03-29T17:05:50.424Z,1.45
2023-03-29T17:08:17.998Z,1.27
2023-03-29T17:10:45.027Z,0.93
2023-03-29T17:13:12.763Z,1.55
2023-03-29T17:15:39.984Z,1.23
2023-03-29T17:18:07.214Z,1.10
2023-03-29T17:20:33.884Z,0.93
2023-03-29T17:23:00.679Z,1.25
2023-03-29T17:25:27.321Z,1.30
2023-03-29T17:27:54.198Z,1.10
2023-03-29T17:30:20.886Z,1.65
2023-03-29T17:32:47.551Z,1.13
2023-03-29T17:35:14.217Z,1.17
2023-03-29T17:37:42.008Z,1.48
2023-03-29T17:40:13.978Z,1.50
2023-03-29T17:42:41.614Z,2.10
2023-03-29T17:45:09.451Z,2.33
2023-03-29T17:47:36.892Z,1.80
2023-03-29T17:50:04.892Z,2.10
2023-03-29T17:52:31.912Z,2.38
2023-03-29T17:54:58.446Z,2.90
2023-03-29T17:57:25.017Z,2.50
2023-03-29T17:59:51.619Z,2.38
2023-03-29T18:02:21.587Z,3.80
2023-03-29T18:04:48.814Z,2.35
2023-03-29T18:07:16.008Z,3.05
2023-03-29T18:09:42.713Z,5.70
2023-03-29T18:12:09.520Z,2.00
2023-03-29T18:14:36.168Z,6.93
2023-03-29T18:17:03.994Z,2.10
2023-03-29T18:19:30.944Z,3.00
2023-03-29T18:21:57.652Z,2.30
2023-03-29T18:24:24.151Z,2.30
2023-03-29T18:26:50.938Z,2.72
2023-03-29T18:29:17.500Z,2.67
2023-03-29T18:31:45.992Z,1.70
2023-03-29T18:34:12.544Z,2.00
2023-03-29T18:36:39.121Z,1.55
2023-03-29T18:39:05.948Z,1.80
2023-03-29T18:41:33.904Z,1.90
2023-03-29T18:44:01.035Z,2.03
2023-03-29T18:46:31.352Z,2.00
2023-03-29T18:48:59.149Z,1.88
2023-03-29T18:51:28.134Z,1.13
2023-03-29T18:53:56.187Z,1.20
2023-03-29T18:56:23.397Z,2.10
2023-03-29T18:58:50.009Z,1.40
2023-03-29T19:01:16.733Z,2.28
2023-03-29T19:03:43.571Z,1.95
2023-03-29T19:06:11.878Z,1.83
2023-03-29T19:08:41.414Z,2.25
2023-03-29T19:11:10.452Z,1.87
2023-03-29T19:13:37.145Z,2.10
2023-03-29T19:16:04.601Z,2.30
2023-03-29T19:18:31.649Z,2.38
2023-03-29T19:20:58.519Z,2.50
2023-03-29T19:23:27.612Z,2.37
2023-03-29T19:26:05.585Z,2.35
2023-03-29T19:28:33.897Z,2.15
2023-03-29T19:31:04.499Z,3.17
2023-03-29T19:33:31.453Z,3.22
2023-03-29T19:35:58.030Z,3.40
2023-03-29T19:38:24.772Z,2.90
2023-03-29T19:40:52.216Z,2.90
2023-03-29T19:43:20.772Z,2.88
2023-03-29T19:45:49.302Z,2.47
2023-03-29T19:48:22.345Z,2.80
2023-03-29T19:50:50.288Z,2.35
2023-03-29T19:53:16.983Z,2.25
2023-03-29T19:55:45.520Z,2.53
2023-03-29T19:58:12.979Z,3.13
2023-03-29T20:00:40.046Z,2.50
2023-03-29T20:03:10.680Z,2.60
2023-03-29T20:05:38.885Z,2.72
2023-03-29T20:08:06.532Z,2.80
2023-03-29T20:10:34.084Z,3.15
2023-03-29T20:13:00.846Z,5.90
2023-03-29T20:15:27.513Z,5.00
2023-03-29T20:17:59.427Z,4.53
2023-03-29T20:20:27.112Z,3.22
2023-03-29T20:23:04.558Z,3.10
2023-03-29T20:25:31.890Z,3.33
2023-03-29T20:27:59.763Z,2.95
2023-03-29T20:30:26.511Z,3.33
2023-03-29T20:32:53.091Z,2.92
2023-03-29T20:35:19.953Z,3.58
2023-03-29T20:37:46.470Z,3.60
2023-03-29T20:40:15.700Z,3.72
2023-03-29T20:42:42.277Z,3.95
2023-03-29T20:45:18.745Z,4.38
2023-03-29T20:47:50.439Z,3.63
2023-03-29T20:50:19.010Z,3.70
2023-03-29T20:52:48.335Z,3.97
2023-03-29T20:55:16.845Z,3.70
2023-03-29T20:57:43.344Z,3.40
2023-03-29T21:00:12.118Z,3.80
2023-03-29T21:02:39.367Z,4.03
2023-03-29T21:05:06.719Z,4.20
2023-03-29T21:07:33.304Z,3.30
2023-03-29T21:10:01.233Z,3.70
2023-03-29T21:12:27.761Z,4.18
2023-03-29T21:14:54.297Z,3.20
2023-03-29T21:17:20.904Z,3.97
2023-03-29T21:19:47.465Z,3.10
2023-03-29T21:22:14.625Z,3.38
2023-03-29T21:24:41.117Z,3.70
2023-03-29T21:27:07.655Z,3.40
2023-03-29T21:29:34.253Z,3.70
2023-03-29T21:32:01.035Z,3.80
2023-03-29T21:34:27.623Z,3.17
2023-03-29T21:36:54.154Z,3.85
2023-03-29T21:39:20.704Z,3.13
2023-03-29T21:41:47.250Z,3.40
2023-03-29T21:44:13.897Z,3.63
2023-03-29T21:46:40.584Z,3.80
2023-03-29T21:49:07.898Z,3.22
2023-03-29T21:51:34.383Z,3.53
2023-03-29T21:54:01.154Z,3.45
2023-03-29T21:56:28.970Z,3.70
2023-03-29T21:58:55.807Z,3.10
2023-03-29T22:01:22.454Z,3.38
2023-03-29T22:03:49.032Z,3.47
2023-03-29T22:06:15.773Z,4.45
2023-03-29T22:08:42.300Z,4.20
2023-03-29T22:11:13.939Z,4.97
2023-03-29T22:13:41.787Z,3.70
2023-03-29T22:16:09.484Z,3.83
2023-03-29T22:18:43.814Z,4.10
2023-03-29T22:21:22.626Z,4.38
2023-03-29T22:23:52.157Z,4.25
2023-03-29T22:26:21.515Z,3.92
2023-03-29T22:28:48.068Z,4.40
2023-03-29T22:31:16.954Z,4.07
2023-03-29T22:33:44.117Z,4.25
2023-03-29T22:36:13.522Z,4.18
2023-03-29T22:38:40.090Z,3.78
2023-03-29T22:41:06.651Z,4.07
2023-03-29T22:43:33.176Z,4.20
2023-03-29T22:45:59.826Z,3.90
2023-03-29T22:48:26.712Z,4.45
2023-03-29T22:50:53.230Z,3.85
2023-03-29T22:53:19.767Z,4.10
2023-03-29T22:55:46.366Z,3.75
2023-03-29T22:58:12.935Z,3.90
2023-03-29T23:00:39.751Z,4.90
2023-03-29T23:03:06.866Z,4.25
2023-03-29T23:05:34.143Z,5.03
2023-03-29T23:08:01.088Z,4.82
2023-03-29T23:10:29.235Z,4.65
2023-03-29T23:13:09.824Z,4.88
2023-03-29T23:15:47.878Z,4.70
2023-03-29T23:18:18.384Z,3.93
2023-03-29T23:20:47.251Z,4.32
2023-03-29T23:23:15.704Z,4.47
2023-03-29T23:25:43.878Z,4.03
2023-03-29T23:28:10.735Z,4.10
2023-03-29T23:30:37.432Z,4.00
2023-03-29T23:33:04.948Z,4.53
2023-03-29T23:35:32.162Z,4.25
2023-03-29T23:37:59.870Z,4.10
2023-03-29T23:40:27.902Z,4.18
2023-03-29T23:42:59.648Z,3.50
2023-03-29T23:45:29.802Z,3.67
2023-03-29T23:47:57.244Z,3.38
2023-03-29T23:50:23.846Z,3.53
2023-03-29T23:52:51.700Z,3.67
2023-03-29T23:55:18.633Z,3.33
2023-03-29T23:57:45.172Z,3.25
